Metar z połowy godziny Komunikat METAR ze strony awiacja.imgw.pl Metar G00 EPSC METAR EPSC 212230Z 06008KT CAVOK 19/14 Q1010 =